Aérodrome :
LOGIN :

S'inscrire | Disclaimer

   EN    FR    IT 

 










Légende :    VFR   VFR Marginal   IFR   IFR Intensif   IFR Très Intensif
Visi : 
Plafond : 
>= 8 km
>= 3000ft
5 à 8 km
1000 à 3000 ft
1500m à 5 km
500 à 1000 ft
800 à 1500m
200 à 500 ft
< 800m
< 200 ft
Symboles :   Orages  Brouillard  Fortes neiges  Fortes précipitations  Vent > 20 kt
SIGMETs :   Divers  Orages  Givrage  Turbulence  Onde Orograph.  Cendres Volcan.






- Altitude de l'aérodrome : 1020 ft
- Code IATA : ILZ


LZZI - Žilina

DERNIER METAR :
  • 051030Z 02005KT 310V120 CAVOK 14/M05 Q1029

METARs EXPIRÉS :
  • 051000Z 03005KT 340V060 CAVOK 14/M03 Q1030
  • 050930Z 02005KT 340V060 CAVOK 13/M05 Q1030
  • 050900Z 05006KT 010V130 CAVOK 12/M05 Q1030
  • 050830Z 05007KT 020V090 CAVOK 11/M05 Q1030
  • 050800Z 05009KT CAVOK 10/M04 Q1030

TAF TAF LZZI
Valide du 05 à 09h jusqu'au 05 à 18h UTC


050800Z 0509/0518 05009KT CAVOK
BECMG 0516/0518 VRB02KT



MET'MAP, la Météo Aéronautique d'un coup d'oeil ! - Copyright ORBIFLY Décembre 2007 - Disclaimer

ORBIFLY MET'MAP TEAM :

Programmation & Développement : Alexandra Zaïnal
Sur une idée originale de : Baudouin d'Aumeries
Assistance à la programmation : Marc-Olivier Méhu
Soutien technique & logistique : Manuel Goepfert

Contact : metmap@orbifly.com




SOURCES & CREDITS :

   NOAA